• Join FlightAware (Why Join?)
  • Login
  • US Flag 
02:46PM EDT


 

Airport Tracker/Info


-or-


 

Live Flight TrackerFlight Track Log ✈ N724AE ✈ 12-Apr-2013 ✈ KCID - KDFW

Flight Track Log - Related Links

Times and Time Zones

All times are in EDT time to prevent confusion due to time zone crossing. See the N724AE flight status page for this flight to view local times or setup timezone preferences in your user account.

Time Position Orientation Groundspeed Altitude Reporting Facility
EDT Latitude Longitude Course Direction KTS MPH feet Rate Location/Type
11:33AM 41.8442 -91.7942 197° South 242 278 4,100  Level Chicago Center
11:34AM 41.7756 -91.8203 196° South 257 296 6,400 2,580 Climbing Chicago Center
11:35AM 41.5234 -91.8383 201° Southwest  Level FlightAware Approximate
11:35AM 41.7061 -91.8478 196° South 264 304 9,400  Level Chicago Center
11:36AM 41.4327 -91.8702 193° South  Level FlightAware Approximate
11:36AM 41.6286 -91.8744 194° South 285 328 10,700  Level Chicago Center
11:37AM 41.3409 -91.8977 193° South  Level FlightAware Approximate
11:37AM 41.5200 -91.9161 196° South 338 389 11,900  Level Chicago Center
11:38AM 41.2460 -91.9359 197° South  Level FlightAware Approximate
11:38AM 41.4219 -91.9506 195° South 363 418 13,300  Level Chicago Center
11:39AM 41.3217 -91.9861 195° South 372 428 14,900 1,560 Climbing Chicago Center
11:40AM 41.2119 -92.0264 195° South 372 428 16,600 1,620 Climbing Chicago Center
11:41AM 41.1117 -92.0631 195° South 377 434 18,300 1,500 Climbing Chicago Center
11:42AM 41.0125 -92.0992 195° South 372 428 19,800 1,380 Climbing Chicago Center
11:43AM 40.9100 -92.1342 194° South 379 436 21,200 1,200 Climbing Chicago Center
11:44AM 40.8058 -92.1725 196° South 388 447 22,300 1,020 Climbing Chicago Center
11:45AM 40.6986 -92.2103 195° South 399 459 23,300 1,020 Climbing Chicago Center
11:46AM 40.6108 -92.2403 195° South 401 461 24,200 1,020 Climbing Kansas City Center
11:47AM 40.5008 -92.2794 195° South 406 467 25,200 960 Climbing Kansas City Center
11:48AM 40.3894 -92.3194 195° South 411 473 26,200 960 Climbing Kansas City Center
11:49AM 40.2731 -92.3583 194° South 409 471 27,300 1,020 Climbing Kansas City Center
11:50AM 40.1514 -92.4017 195° South 406 467 28,400 1,080 Climbing Kansas City Center
11:51AM 40.0372 -92.4414 195° South 402 463 29,500 1,020 Climbing Kansas City Center
11:52AM 39.9283 -92.4792 195° South 404 465 30,600 960 Climbing Kansas City Center
11:53AM 39.8181 -92.5156 194° South 409 471 31,600 960 Climbing Kansas City Center
11:54AM 39.7067 -92.5542 195° South 414 476 32,600 960 Climbing Kansas City Center
11:55AM 39.5936 -92.5931 195° South 419 482 33,600 1,080 Climbing Kansas City Center
11:56AM 39.4583 -92.6406 195° South 422 486 34,900 1,080 Climbing Kansas City Center
11:57AM 39.3469 -92.6778 194° South 417 480 35,900 480 Climbing Kansas City Center
11:58AM 39.2444 -92.7142 195° South 411 473 36,000  Climbing Kansas City Center
11:59AM 39.1267 -92.7517 194° South 410 472 36,000  Level Kansas City Center
12:01PM 39.0147 -92.7919 196° South 416 479 36,000  Level Kansas City Center
12:02PM 38.8858 -92.8342 194° South 415 478 36,000  Level Kansas City Center
12:03PM 38.7761 -92.8706 194° South 408 470 36,000  Level Kansas City Center
12:04PM 38.6661 -92.9072 195° South 406 467 36,000  Level Kansas City Center
12:05PM 38.5561 -92.9442 195° South 407 468 36,000  Level Kansas City Center
12:06PM 38.4450 -92.9803 194° South 410 472 36,000  Level Kansas City Center
12:07PM 38.3117 -93.0242 194° South 411 473 36,000  Level Kansas City Center
12:08PM 38.2031 -93.0608 195° South 408 470 36,000  Level Kansas City Center
12:09PM 38.0933 -93.0956 194° South 407 468 36,000  Level Kansas City Center
12:10PM 37.9853 -93.1311 195° South 404 465 36,000  Level Kansas City Center
12:11PM 37.8747 -93.1672 194° South 406 467 36,000  Level Kansas City Center
12:12PM 37.7628 -93.2036 194° South 412 474 36,000  Level Kansas City Center
12:13PM 37.6278 -93.2475 194° South 416 479 36,000  Level Kansas City Center
12:14PM 37.5169 -93.2853 195° South 414 476 36,000  Level Kansas City Center
12:15PM 37.4056 -93.3208 194° South 412 474 36,000  Level Kansas City Center
12:16PM 37.3008 -93.3689 200° South 408 470 36,000  Level Kansas City Center
12:17PM 37.2100 -93.4411 212° Southwest 391 450 36,000  Level Kansas City Center
12:18PM 37.1183 -93.5083 210° Southwest 383 441 36,000  Level Kansas City Center
12:19PM 37.0242 -93.5744 209° Southwest 384 442 36,000  Level Kansas City Center
12:20PM 36.9136 -93.6539 210° Southwest 382 440 36,000  Level Kansas City Center
12:21PM 36.8219 -93.7156 208° Southwest 388 447 36,000  Level Kansas City Center
12:22PM 36.7256 -93.7836 210° Southwest 390 449 36,000  Level Kansas City Center
12:23PM 36.6319 -93.8500 210° Southwest 386 444 36,000  Level Kansas City Center
12:24PM 36.5381 -93.9164 210° Southwest 386 444 36,000  Level Kansas City Center
12:25PM 36.4431 -93.9825 209° Southwest 388 447 36,000  Level Kansas City Center
12:26PM 36.3372 -94.0581 210° Southwest 386 444 36,000  Level Kansas City Center
12:27PM 36.3181 -94.0761 217° Southwest 385 443 36,000  Level Memphis Center
12:28PM 36.2203 -94.1361 206° Southwest 385 443 36,000  Level Memphis Center
12:29PM 36.1208 -94.1803 200° South 385 443 36,000  Level Memphis Center
12:30PM 36.0194 -94.2244 199° South 385 443 36,000  Level Memphis Center
12:31PM 35.9200 -94.2711 201° Southwest 385 443 36,000  Level Memphis Center
12:32PM 35.8100 -94.3219 201° Southwest 385 443 36,000  Level Memphis Center
12:33PM 35.7128 -94.3661 200° South 385 443 36,000  Level Memphis Center
12:34PM 35.6175 -94.4100 201° Southwest 379 436 36,000  Level Memphis Center
12:35PM 35.5242 -94.4539 201° Southwest 379 436 36,000  Level Memphis Center
12:36PM 35.3708 -94.5189 199° South 359 413 36,000  Level Fort Worth Center
12:37PM 35.2758 -94.5606 200° South 366 421 36,000  Level Fort Worth Center
12:38PM 35.1808 -94.6042 201° Southwest 366 421 36,000  Level Fort Worth Center
12:39PM 35.0881 -94.6481 201° Southwest 366 421 36,000  Level Fort Worth Center
12:40PM 34.9994 -94.6964 204° Southwest 366 421 36,000  Level Fort Worth Center
12:41PM 34.9281 -94.7747 222° Southwest 354 407 36,000  Level Fort Worth Center
12:42PM 34.8606 -94.8450 221° Southwest 354 407 36,000  Level Fort Worth Center
12:43PM 34.7633 -94.8833 198° South 361 415 36,000  Level Fort Worth Center
12:44PM 34.6442 -94.8642 172° South 377 434 36,000  Level Fort Worth Center
12:45PM 34.5356 -94.8675 181° South 382 440 36,000 -60 Level Fort Worth Center
12:46PM 34.4600 -94.9428 219° Southwest 353 406 35,900 -540 Descending Fort Worth Center
12:47PM 34.3989 -95.0250 228° Southwest 343 395 35,000 -960 Descending Fort Worth Center
12:48PM 34.3381 -95.1172 231° Southwest 343 395 34,000 -1,020 Descending Fort Worth Center
12:49PM 34.2750 -95.2069 230° Southwest 349 402 33,000 -1,080 Descending Fort Worth Center
12:50PM 34.2014 -95.2942 224° Southwest 361 415 31,900 -1,020 Descending Fort Worth Center
12:51PM 34.1300 -95.3861 227° Southwest 366 421 31,000 -1,140 Descending Fort Worth Center
12:52PM 34.0625 -95.4756 228° Southwest 371 427 29,700 -1,800 Descending Fort Worth Center
12:53PM 33.9847 -95.5725 226° Southwest 381 438 27,500 -2,220 Descending Fort Worth Center
12:54PM 33.9108 -95.6642 226° Southwest 381 438 25,300 -2,280 Descending Fort Worth Center
12:55PM 33.8369 -95.7581 227° Southwest 388 447 23,000 -2,160 Descending Fort Worth Center
12:56PM 33.7650 -95.8519 227° Southwest 383 441 21,000 -2,220 Descending Fort Worth Center
12:57PM 33.6892 -95.9531 228° Southwest 378 435 18,600 -2,100 Descending Fort Worth Center
12:58PM 33.6211 -96.0364 226° Southwest 378 435 16,800 -2,100 Descending Fort Worth Center
12:59PM 33.5450 -96.1350 227° Southwest 378 435 14,500 -2,100 Descending Fort Worth Center
01:00PM 33.4811 -96.2181 227° Southwest 373 429 12,700 -1,560 Descending Fort Worth Center
01:01PM 33.4108 -96.3111 228° Southwest 366 421 11,400 -900 Descending Fort Worth Center
01:02PM 33.3594 -96.3864 231° Southwest 317 365 11,000 -600 Descending Fort Worth Center
01:03PM 33.3225 -96.4664 241° Southwest 285 328 10,200 -1,200 Descending Fort Worth Center
01:04PM 33.2917 -96.5461 245° Southwest 267 307 8,700 -1,440 Descending Fort Worth Center
01:05PM 33.2694 -96.6308 253° West 267 307 7,400 -1,140 Descending Fort Worth Center
01:06PM 33.2489 -96.7156 254° West 267 307 6,500 -720 Descending Fort Worth Center
01:07PM 33.2306 -96.7975 255° West 262 302 6,000 -600 Descending Fort Worth Center
01:08PM 33.2039 -96.8697 246° West 267 307 5,400 -600 Descending Fort Worth Center